sensor_id;sensor_type;location;lat;lon;timestamp;P1;durP1;ratioP1;P2;durP2;ratioP2
19842;SDS011;10082;51.038;6.992;2024-01-15T00:00:17;21.93;;;17.93;;
19842;SDS011;10082;51.038;6.992;2024-01-15T00:02:46;22.30;;;17.10;;
19842;SDS011;10082;51.038;6.992;2024-01-15T00:05:14;25.70;;;19.87;;
19842;SDS011;10082;51.038;6.992;2024-01-15T00:07:41;25.33;;;19.77;;
19842;SDS011;10082;51.038;6.992;2024-01-15T00:10:08;26.00;;;20.47;;
19842;SDS011;10082;51.038;6.992;2024-01-15T00:12:35;27.63;;;20.90;;
19842;SDS011;10082;51.038;6.992;2024-01-15T00:15:02;28.27;;;21.37;;
19842;SDS011;10082;51.038;6.992;2024-01-15T00:17:30;26.33;;;21.20;;
19842;SDS011;10082;51.038;6.992;2024-01-15T00:19:58;28.57;;;20.93;;
19842;SDS011;10082;51.038;6.992;2024-01-15T00:22:25;26.30;;;21.20;;
19842;SDS011;10082;51.038;6.992;2024-01-15T00:24:52;26.53;;;20.50;;
19842;SDS011;10082;51.038;6.992;2024-01-15T00:27:19;28.97;;;22.33;;
19842;SDS011;10082;51.038;6.992;2024-01-15T00:29:47;30.30;;;22.77;;
19842;SDS011;10082;51.038;6.992;2024-01-15T00:32:16;29.87;;;22.00;;
19842;SDS011;10082;51.038;6.992;2024-01-15T00:34:43;30.47;;;21.90;;
19842;SDS011;10082;51.038;6.992;2024-01-15T00:37:12;34.10;;;23.73;;
19842;SDS011;10082;51.038;6.992;2024-01-15T00:39:39;34.27;;;24.57;;
19842;SDS011;10082;51.038;6.992;2024-01-15T00:42:07;32.73;;;24.70;;
19842;SDS011;10082;51.038;6.992;2024-01-15T00:44:34;35.60;;;25.77;;
19842;SDS011;10082;51.038;6.992;2024-01-15T00:47:02;34.57;;;25.20;;
19842;SDS011;10082;51.038;6.992;2024-01-15T00:49:29;35.07;;;25.00;;
19842;SDS011;10082;51.038;6.992;2024-01-15T00:51:56;35.13;;;25.97;;
19842;SDS011;10082;51.038;6.992;2024-01-15T00:54:28;32.27;;;24.53;;
19842;SDS011;10082;51.038;6.992;2024-01-15T00:56:55;36.80;;;27.33;;
19842;SDS011;10082;51.038;6.992;2024-01-15T00:59:22;36.03;;;25.97;;
19842;SDS011;10082;51.038;6.992;2024-01-15T01:01:49;35.03;;;26.17;;
19842;SDS011;10082;51.038;6.992;2024-01-15T01:04:16;35.70;;;27.10;;
19842;SDS011;10082;51.038;6.992;2024-01-15T01:06:43;33.93;;;25.80;;
19842;SDS011;10082;51.038;6.992;2024-01-15T01:09:10;35.57;;;26.47;;
19842;SDS011;10082;51.038;6.992;2024-01-15T01:11:39;35.23;;;25.73;;
19842;SDS011;10082;51.038;6.992;2024-01-15T01:14:06;36.23;;;25.67;;
19842;SDS011;10082;51.038;6.992;2024-01-15T01:16:33;35.03;;;25.47;;
19842;SDS011;10082;51.038;6.992;2024-01-15T01:19:04;35.70;;;24.67;;
19842;SDS011;10082;51.038;6.992;2024-01-15T01:21:31;32.57;;;24.87;;
19842;SDS011;10082;51.038;6.992;2024-01-15T01:23:59;32.93;;;24.47;;
19842;SDS011;10082;51.038;6.992;2024-01-15T01:26:26;29.20;;;23.47;;
19842;SDS011;10082;51.038;6.992;2024-01-15T01:28:54;32.70;;;24.33;;
19842;SDS011;10082;51.038;6.992;2024-01-15T01:31:21;30.20;;;22.70;;
19842;SDS011;10082;51.038;6.992;2024-01-15T01:33:49;29.63;;;22.63;;
19842;SDS011;10082;51.038;6.992;2024-01-15T01:36:16;29.43;;;22.70;;
19842;SDS011;10082;51.038;6.992;2024-01-15T01:38:43;27.37;;;23.30;;
19842;SDS011;10082;51.038;6.992;2024-01-15T01:41:10;26.93;;;22.67;;
19842;SDS011;10082;51.038;6.992;2024-01-15T01:43:37;28.30;;;22.77;;
19842;SDS011;10082;51.038;6.992;2024-01-15T01:46:05;29.47;;;22.93;;
19842;SDS011;10082;51.038;6.992;2024-01-15T01:48:33;29.83;;;23.67;;
19842;SDS011;10082;51.038;6.992;2024-01-15T01:51:01;27.13;;;22.23;;
19842;SDS011;10082;51.038;6.992;2024-01-15T01:53:29;29.80;;;23.00;;
19842;SDS011;10082;51.038;6.992;2024-01-15T01:56:00;30.10;;;22.20;;
19842;SDS011;10082;51.038;6.992;2024-01-15T01:58:28;28.23;;;21.63;;
19842;SDS011;10082;51.038;6.992;2024-01-15T02:00:55;26.87;;;21.80;;
19842;SDS011;10082;51.038;6.992;2024-01-15T02:03:25;26.47;;;21.50;;
19842;SDS011;10082;51.038;6.992;2024-01-15T02:05:53;27.60;;;21.93;;
19842;SDS011;10082;51.038;6.992;2024-01-15T02:08:20;28.10;;;22.27;;
19842;SDS011;10082;51.038;6.992;2024-01-15T02:10:48;27.17;;;21.17;;
19842;SDS011;10082;51.038;6.992;2024-01-15T02:13:15;25.87;;;20.73;;
19842;SDS011;10082;51.038;6.992;2024-01-15T02:15:42;27.47;;;20.23;;
19842;SDS011;10082;51.038;6.992;2024-01-15T02:18:09;25.83;;;20.20;;
19842;SDS011;10082;51.038;6.992;2024-01-15T02:20:38;28.13;;;20.10;;
19842;SDS011;10082;51.038;6.992;2024-01-15T02:23:10;25.97;;;20.20;;
19842;SDS011;10082;51.038;6.992;2024-01-15T02:25:38;28.20;;;20.97;;
19842;SDS011;10082;51.038;6.992;2024-01-15T02:28:06;27.03;;;21.47;;
19842;SDS011;10082;51.038;6.992;2024-01-15T02:30:34;26.20;;;20.90;;
19842;SDS011;10082;51.038;6.992;2024-01-15T02:33:04;25.90;;;20.60;;
19842;SDS011;10082;51.038;6.992;2024-01-15T02:35:32;25.37;;;20.33;;
19842;SDS011;10082;51.038;6.992;2024-01-15T02:38:01;25.07;;;20.20;;
19842;SDS011;10082;51.038;6.992;2024-01-15T02:40:30;27.70;;;21.20;;
19842;SDS011;10082;51.038;6.992;2024-01-15T02:42:58;23.03;;;19.77;;
19842;SDS011;10082;51.038;6.992;2024-01-15T02:45:25;24.03;;;19.83;;
19842;SDS011;10082;51.038;6.992;2024-01-15T02:47:52;26.07;;;19.77;;
19842;SDS011;10082;51.038;6.992;2024-01-15T02:50:19;25.27;;;19.93;;
19842;SDS011;10082;51.038;6.992;2024-01-15T02:52:46;23.27;;;18.17;;
19842;SDS011;10082;51.038;6.992;2024-01-15T02:55:13;23.23;;;18.80;;
19842;SDS011;10082;51.038;6.992;2024-01-15T02:57:42;24.77;;;19.33;;
19842;SDS011;10082;51.038;6.992;2024-01-15T03:00:09;23.73;;;18.70;;
19842;SDS011;10082;51.038;6.992;2024-01-15T03:02:37;21.13;;;18.53;;
19842;SDS011;10082;51.038;6.992;2024-01-15T03:05:07;22.87;;;18.53;;
19842;SDS011;10082;51.038;6.992;2024-01-15T03:07:35;21.67;;;18.20;;
19842;SDS011;10082;51.038;6.992;2024-01-15T03:10:02;23.67;;;19.27;;
19842;SDS011;10082;51.038;6.992;2024-01-15T03:12:29;21.77;;;18.20;;
19842;SDS011;10082;51.038;6.992;2024-01-15T03:14:58;21.73;;;17.63;;
19842;SDS011;10082;51.038;6.992;2024-01-15T03:17:25;19.33;;;16.23;;
19842;SDS011;10082;51.038;6.992;2024-01-15T03:19:52;19.93;;;16.30;;
19842;SDS011;10082;51.038;6.992;2024-01-15T03:22:19;19.73;;;16.30;;
19842;SDS011;10082;51.038;6.992;2024-01-15T03:24:47;18.87;;;16.33;;
19842;SDS011;10082;51.038;6.992;2024-01-15T03:27:13;19.17;;;16.87;;
19842;SDS011;10082;51.038;6.992;2024-01-15T03:29:41;18.40;;;16.37;;
19842;SDS011;10082;51.038;6.992;2024-01-15T03:32:09;20.13;;;16.00;;
19842;SDS011;10082;51.038;6.992;2024-01-15T03:34:36;18.03;;;15.63;;
19842;SDS011;10082;51.038;6.992;2024-01-15T03:37:03;19.07;;;15.83;;
19842;SDS011;10082;51.038;6.992;2024-01-15T03:39:31;17.40;;;15.50;;
19842;SDS011;10082;51.038;6.992;2024-01-15T03:41:57;19.10;;;16.67;;
19842;SDS011;10082;51.038;6.992;2024-01-15T03:44:24;17.53;;;15.60;;
19842;SDS011;10082;51.038;6.992;2024-01-15T03:46:51;18.10;;;14.83;;
19842;SDS011;10082;51.038;6.992;2024-01-15T03:49:20;18.53;;;15.87;;
19842;SDS011;10082;51.038;6.992;2024-01-15T03:51:47;19.83;;;16.47;;
19842;SDS011;10082;51.038;6.992;2024-01-15T03:54:14;19.73;;;16.80;;
19842;SDS011;10082;51.038;6.992;2024-01-15T03:56:41;18.43;;;16.43;;
19842;SDS011;10082;51.038;6.992;2024-01-15T03:59:08;21.60;;;17.10;;
19842;SDS011;10082;51.038;6.992;2024-01-15T04:01:35;19.43;;;17.37;;
19842;SDS011;10082;51.038;6.992;2024-01-15T04:04:02;20.53;;;17.57;;
19842;SDS011;10082;51.038;6.992;2024-01-15T04:06:30;20.93;;;17.53;;
19842;SDS011;10082;51.038;6.992;2024-01-15T04:08:58;19.27;;;16.73;;
19842;SDS011;10082;51.038;6.992;2024-01-15T04:11:25;20.07;;;17.50;;
19842;SDS011;10082;51.038;6.992;2024-01-15T04:13:52;20.27;;;18.07;;
19842;SDS011;10082;51.038;6.992;2024-01-15T04:16:20;20.33;;;17.43;;
19842;SDS011;10082;51.038;6.992;2024-01-15T04:18:47;24.47;;;18.20;;
19842;SDS011;10082;51.038;6.992;2024-01-15T04:21:14;19.67;;;17.07;;
19842;SDS011;10082;51.038;6.992;2024-01-15T04:23:42;19.97;;;17.50;;
19842;SDS011;10082;51.038;6.992;2024-01-15T04:26:10;21.47;;;17.07;;
19842;SDS011;10082;51.038;6.992;2024-01-15T04:28:37;18.00;;;16.17;;
19842;SDS011;10082;51.038;6.992;2024-01-15T04:31:03;20.90;;;18.20;;
19842;SDS011;10082;51.038;6.992;2024-01-15T04:33:30;20.63;;;17.33;;
19842;SDS011;10082;51.038;6.992;2024-01-15T04:36:00;19.33;;;17.13;;
19842;SDS011;10082;51.038;6.992;2024-01-15T04:38:28;20.03;;;17.00;;
19842;SDS011;10082;51.038;6.992;2024-01-15T04:40:56;17.93;;;15.77;;
19842;SDS011;10082;51.038;6.992;2024-01-15T04:43:23;19.37;;;16.20;;
19842;SDS011;10082;51.038;6.992;2024-01-15T04:45:50;19.10;;;15.43;;
19842;SDS011;10082;51.038;6.992;2024-01-15T04:48:17;18.93;;;15.17;;
19842;SDS011;10082;51.038;6.992;2024-01-15T04:50:45;16.50;;;14.63;;
19842;SDS011;10082;51.038;6.992;2024-01-15T04:53:12;17.77;;;14.70;;
19842;SDS011;10082;51.038;6.992;2024-01-15T04:55:39;16.47;;;14.20;;
19842;SDS011;10082;51.038;6.992;2024-01-15T04:58:08;17.43;;;15.20;;
19842;SDS011;10082;51.038;6.992;2024-01-15T05:00:35;17.17;;;14.27;;
19842;SDS011;10082;51.038;6.992;2024-01-15T05:03:02;16.77;;;14.23;;
19842;SDS011;10082;51.038;6.992;2024-01-15T05:05:30;15.60;;;13.87;;
19842;SDS011;10082;51.038;6.992;2024-01-15T05:07:57;15.33;;;13.73;;
19842;SDS011;10082;51.038;6.992;2024-01-15T05:10:24;15.17;;;13.07;;
19842;SDS011;10082;51.038;6.992;2024-01-15T05:12:51;15.97;;;13.77;;
19842;SDS011;10082;51.038;6.992;2024-01-15T05:15:19;15.20;;;13.27;;
19842;SDS011;10082;51.038;6.992;2024-01-15T05:17:46;16.50;;;13.37;;
19842;SDS011;10082;51.038;6.992;2024-01-15T05:20:13;15.20;;;12.70;;
19842;SDS011;10082;51.038;6.992;2024-01-15T05:22:40;17.07;;;13.93;;
19842;SDS011;10082;51.038;6.992;2024-01-15T05:25:07;15.07;;;13.27;;
19842;SDS011;10082;51.038;6.992;2024-01-15T05:27:34;16.37;;;13.37;;
19842;SDS011;10082;51.038;6.992;2024-01-15T05:30:02;16.93;;;14.33;;
19842;SDS011;10082;51.038;6.992;2024-01-15T05:32:31;16.60;;;14.53;;
19842;SDS011;10082;51.038;6.992;2024-01-15T05:34:58;14.70;;;13.20;;
19842;SDS011;10082;51.038;6.992;2024-01-15T05:37:25;16.23;;;13.80;;
19842;SDS011;10082;51.038;6.992;2024-01-15T05:39:52;15.57;;;13.07;;
19842;SDS011;10082;51.038;6.992;2024-01-15T05:42:19;15.07;;;13.40;;
19842;SDS011;10082;51.038;6.992;2024-01-15T05:44:46;16.07;;;13.03;;
19842;SDS011;10082;51.038;6.992;2024-01-15T05:47:13;16.23;;;12.97;;
19842;SDS011;10082;51.038;6.992;2024-01-15T05:49:42;14.53;;;13.00;;
19842;SDS011;10082;51.038;6.992;2024-01-15T05:52:09;15.50;;;12.70;;
19842;SDS011;10082;51.038;6.992;2024-01-15T05:54:36;14.30;;;12.03;;
19842;SDS011;10082;51.038;6.992;2024-01-15T05:57:03;13.70;;;11.70;;
19842;SDS011;10082;51.038;6.992;2024-01-15T05:59:30;14.43;;;12.23;;
19842;SDS011;10082;51.038;6.992;2024-01-15T06:01:59;12.67;;;11.40;;
19842;SDS011;10082;51.038;6.992;2024-01-15T06:04:26;12.87;;;11.57;;
19842;SDS011;10082;51.038;6.992;2024-01-15T06:06:55;12.20;;;10.90;;
19842;SDS011;10082;51.038;6.992;2024-01-15T06:09:22;11.80;;;10.47;;
19842;SDS011;10082;51.038;6.992;2024-01-15T06:11:49;12.27;;;10.53;;
19842;SDS011;10082;51.038;6.992;2024-01-15T06:14:16;11.43;;;10.23;;
19842;SDS011;10082;51.038;6.992;2024-01-15T06:16:43;12.83;;;10.80;;
19842;SDS011;10082;51.038;6.992;2024-01-15T06:19:10;12.33;;;11.03;;
19842;SDS011;10082;51.038;6.992;2024-01-15T06:21:38;11.60;;;10.40;;
19842;SDS011;10082;51.038;6.992;2024-01-15T06:24:06;12.50;;;11.27;;
19842;SDS011;10082;51.038;6.992;2024-01-15T06:26:35;13.93;;;11.27;;
19842;SDS011;10082;51.038;6.992;2024-01-15T06:29:02;12.30;;;10.73;;
19842;SDS011;10082;51.038;6.992;2024-01-15T06:31:29;12.37;;;11.10;;
19842;SDS011;10082;51.038;6.992;2024-01-15T06:33:56;13.03;;;11.50;;
19842;SDS011;10082;51.038;6.992;2024-01-15T06:36:23;12.50;;;11.20;;
19842;SDS011;10082;51.038;6.992;2024-01-15T06:38:50;12.83;;;11.53;;
19842;SDS011;10082;51.038;6.992;2024-01-15T06:41:19;12.03;;;10.67;;
19842;SDS011;10082;51.038;6.992;2024-01-15T06:43:46;11.77;;;10.67;;
19842;SDS011;10082;51.038;6.992;2024-01-15T06:46:17;12.27;;;11.07;;
19842;SDS011;10082;51.038;6.992;2024-01-15T06:48:46;12.43;;;10.90;;
19842;SDS011;10082;51.038;6.992;2024-01-15T06:51:13;11.67;;;10.43;;
19842;SDS011;10082;51.038;6.992;2024-01-15T06:53:40;12.37;;;11.03;;
19842;SDS011;10082;51.038;6.992;2024-01-15T06:56:08;11.93;;;10.77;;
19842;SDS011;10082;51.038;6.992;2024-01-15T06:58:37;12.47;;;11.20;;
19842;SDS011;10082;51.038;6.992;2024-01-15T07:01:04;15.80;;;13.17;;
19842;SDS011;10082;51.038;6.992;2024-01-15T07:03:31;14.10;;;12.70;;
19842;SDS011;10082;51.038;6.992;2024-01-15T07:05:58;14.10;;;12.67;;
19842;SDS011;10082;51.038;6.992;2024-01-15T07:08:25;14.63;;;13.13;;
19842;SDS011;10082;51.038;6.992;2024-01-15T07:10:52;14.97;;;13.40;;
19842;SDS011;10082;51.038;6.992;2024-01-15T07:13:20;15.33;;;13.77;;
19842;SDS011;10082;51.038;6.992;2024-01-15T07:15:48;16.13;;;14.53;;
19842;SDS011;10082;51.038;6.992;2024-01-15T07:18:16;15.03;;;13.53;;
19842;SDS011;10082;51.038;6.992;2024-01-15T07:20:43;16.10;;;14.50;;
19842;SDS011;10082;51.038;6.992;2024-01-15T07:23:10;15.10;;;13.50;;
19842;SDS011;10082;51.038;6.992;2024-01-15T07:25:37;14.20;;;12.73;;
19842;SDS011;10082;51.038;6.992;2024-01-15T07:28:04;14.87;;;13.20;;
19842;SDS011;10082;51.038;6.992;2024-01-15T07:30:32;14.00;;;12.60;;
19842;SDS011;10082;51.038;6.992;2024-01-15T07:33:00;14.47;;;12.17;;
19842;SDS011;10082;51.038;6.992;2024-01-15T07:35:29;13.67;;;12.07;;
19842;SDS011;10082;51.038;6.992;2024-01-15T07:37:56;13.53;;;12.10;;
19842;SDS011;10082;51.038;6.992;2024-01-15T07:40:24;14.23;;;12.77;;
19842;SDS011;10082;51.038;6.992;2024-01-15T07:42:51;13.03;;;11.73;;
19842;SDS011;10082;51.038;6.992;2024-01-15T07:45:18;15.23;;;13.30;;
19842;SDS011;10082;51.038;6.992;2024-01-15T07:47:46;14.30;;;12.80;;
19842;SDS011;10082;51.038;6.992;2024-01-15T07:50:14;14.23;;;12.83;;
19842;SDS011;10082;51.038;6.992;2024-01-15T07:52:41;14.03;;;12.70;;
19842;SDS011;10082;51.038;6.992;2024-01-15T07:55:09;14.17;;;12.73;;
19842;SDS011;10082;51.038;6.992;2024-01-15T07:57:37;14.83;;;13.33;;
19842;SDS011;10082;51.038;6.992;2024-01-15T08:00:04;15.17;;;13.60;;
19842;SDS011;10082;51.038;6.992;2024-01-15T08:02:34;14.00;;;12.47;;
19842;SDS011;10082;51.038;6.992;2024-01-15T08:05:01;15.70;;;13.93;;
19842;SDS011;10082;51.038;6.992;2024-01-15T08:07:29;14.97;;;13.40;;
19842;SDS011;10082;51.038;6.992;2024-01-15T08:09:56;16.10;;;14.37;;
19842;SDS011;10082;51.038;6.992;2024-01-15T08:12:24;14.50;;;13.10;;
19842;SDS011;10082;51.038;6.992;2024-01-15T08:14:56;15.70;;;14.20;;
19842;SDS011;10082;51.038;6.992;2024-01-15T08:17:23;16.67;;;15.07;;
19842;SDS011;10082;51.038;6.992;2024-01-15T08:19:53;16.80;;;15.20;;
19842;SDS011;10082;51.038;6.992;2024-01-15T08:22:20;17.80;;;15.97;;
19842;SDS011;10082;51.038;6.992;2024-01-15T08:24:49;19.23;;;17.10;;
19842;SDS011;10082;51.038;6.992;2024-01-15T08:27:17;17.83;;;16.07;;
19842;SDS011;10082;51.038;6.992;2024-01-15T08:29:45;19.10;;;16.73;;
19842;SDS011;10082;51.038;6.992;2024-01-15T08:32:12;19.07;;;16.93;;
19842;SDS011;10082;51.038;6.992;2024-01-15T08:34:40;19.17;;;17.27;;
19842;SDS011;10082;51.038;6.992;2024-01-15T08:37:07;17.80;;;16.00;;
19842;SDS011;10082;51.038;6.992;2024-01-15T08:39:34;18.80;;;16.90;;
19842;SDS011;10082;51.038;6.992;2024-01-15T08:42:05;18.87;;;17.03;;
19842;SDS011;10082;51.038;6.992;2024-01-15T08:44:32;18.93;;;16.30;;
19842;SDS011;10082;51.038;6.992;2024-01-15T08:46:59;17.40;;;15.60;;
19842;SDS011;10082;51.038;6.992;2024-01-15T08:49:28;17.87;;;15.97;;
19842;SDS011;10082;51.038;6.992;2024-01-15T08:51:55;17.03;;;15.37;;
19842;SDS011;10082;51.038;6.992;2024-01-15T08:54:22;17.90;;;16.10;;
19842;SDS011;10082;51.038;6.992;2024-01-15T08:56:49;19.13;;;16.00;;
19842;SDS011;10082;51.038;6.992;2024-01-15T08:59:18;19.13;;;17.20;;
19842;SDS011;10082;51.038;6.992;2024-01-15T09:01:58;19.60;;;17.63;;
19842;SDS011;10082;51.038;6.992;2024-01-15T09:05:02;19.47;;;17.30;;
19842;SDS011;10082;51.038;6.992;2024-01-15T09:07:29;21.53;;;18.53;;
19842;SDS011;10082;51.038;6.992;2024-01-15T09:09:56;21.00;;;18.37;;
19842;SDS011;10082;51.038;6.992;2024-01-15T09:12:24;23.23;;;19.33;;
19842;SDS011;10082;51.038;6.992;2024-01-15T09:14:53;21.57;;;19.27;;
19842;SDS011;10082;51.038;6.992;2024-01-15T09:17:20;21.17;;;18.97;;
19842;SDS011;10082;51.038;6.992;2024-01-15T09:19:48;22.23;;;19.83;;
19842;SDS011;10082;51.038;6.992;2024-01-15T09:22:15;20.80;;;18.67;;
19842;SDS011;10082;51.038;6.992;2024-01-15T09:24:43;19.97;;;17.53;;
19842;SDS011;10082;51.038;6.992;2024-01-15T09:27:10;20.73;;;18.43;;
19842;SDS011;10082;51.038;6.992;2024-01-15T09:29:37;18.70;;;16.80;;
19842;SDS011;10082;51.038;6.992;2024-01-15T09:32:08;19.90;;;17.80;;
19842;SDS011;10082;51.038;6.992;2024-01-15T09:34:35;19.40;;;17.47;;
19842;SDS011;10082;51.038;6.992;2024-01-15T09:37:02;20.27;;;17.23;;
19842;SDS011;10082;51.038;6.992;2024-01-15T09:39:30;17.17;;;15.57;;
19842;SDS011;10082;51.038;6.992;2024-01-15T09:41:58;18.87;;;17.07;;
19842;SDS011;10082;51.038;6.992;2024-01-15T09:44:26;20.00;;;17.87;;
19842;SDS011;10082;51.038;6.992;2024-01-15T09:46:53;17.43;;;15.80;;
19842;SDS011;10082;51.038;6.992;2024-01-15T09:49:23;18.73;;;16.73;;
19842;SDS011;10082;51.038;6.992;2024-01-15T09:51:51;18.33;;;16.63;;
19842;SDS011;10082;51.038;6.992;2024-01-15T09:54:18;17.50;;;15.70;;
19842;SDS011;10082;51.038;6.992;2024-01-15T09:56:45;16.03;;;14.63;;
19842;SDS011;10082;51.038;6.992;2024-01-15T09:59:13;13.90;;;12.63;;
19842;SDS011;10082;51.038;6.992;2024-01-15T10:01:42;14.60;;;13.30;;
19842;SDS011;10082;51.038;6.992;2024-01-15T10:04:10;13.83;;;12.53;;
19842;SDS011;10082;51.038;6.992;2024-01-15T10:06:39;14.00;;;12.70;;
19842;SDS011;10082;51.038;6.992;2024-01-15T10:09:12;13.87;;;12.63;;
19842;SDS011;10082;51.038;6.992;2024-01-15T10:11:39;13.93;;;12.63;;
19842;SDS011;10082;51.038;6.992;2024-01-15T10:14:06;14.50;;;13.27;;
19842;SDS011;10082;51.038;6.992;2024-01-15T10:16:34;12.07;;;11.00;;
19842;SDS011;10082;51.038;6.992;2024-01-15T10:19:01;13.13;;;12.03;;
19842;SDS011;10082;51.038;6.992;2024-01-15T10:21:29;12.27;;;11.27;;
19842;SDS011;10082;51.038;6.992;2024-01-15T10:24:01;11.30;;;10.37;;
19842;SDS011;10082;51.038;6.992;2024-01-15T10:26:29;12.17;;;11.20;;
19842;SDS011;10082;51.038;6.992;2024-01-15T10:28:57;11.50;;;10.50;;
19842;SDS011;10082;51.038;6.992;2024-01-15T10:31:25;11.47;;;10.50;;
19842;SDS011;10082;51.038;6.992;2024-01-15T10:33:53;12.10;;;11.10;;
19842;SDS011;10082;51.038;6.992;2024-01-15T10:36:20;11.50;;;10.50;;
19842;SDS011;10082;51.038;6.992;2024-01-15T10:38:47;10.57;;;9.60;;
19842;SDS011;10082;51.038;6.992;2024-01-15T10:41:16;10.80;;;9.80;;
19842;SDS011;10082;51.038;6.992;2024-01-15T10:43:43;10.33;;;9.43;;
19842;SDS011;10082;51.038;6.992;2024-01-15T10:46:10;10.77;;;9.70;;
19842;SDS011;10082;51.038;6.992;2024-01-15T10:48:37;10.03;;;9.13;;
19842;SDS011;10082;51.038;6.992;2024-01-15T10:51:05;8.90;;;8.10;;
19842;SDS011;10082;51.038;6.992;2024-01-15T10:53:36;9.60;;;8.70;;
19842;SDS011;10082;51.038;6.992;2024-01-15T10:56:05;8.53;;;7.83;;
19842;SDS011;10082;51.038;6.992;2024-01-15T10:58:35;8.53;;;7.80;;
19842;SDS011;10082;51.038;6.992;2024-01-15T11:01:03;8.87;;;8.07;;
19842;SDS011;10082;51.038;6.992;2024-01-15T11:03:31;8.30;;;7.50;;
19842;SDS011;10082;51.038;6.992;2024-01-15T11:05:59;7.60;;;7.00;;
19842;SDS011;10082;51.038;6.992;2024-01-15T11:08:26;7.23;;;6.63;;
19842;SDS011;10082;51.038;6.992;2024-01-15T11:10:53;6.33;;;5.83;;
19842;SDS011;10082;51.038;6.992;2024-01-15T11:13:20;5.70;;;5.30;;
19842;SDS011;10082;51.038;6.992;2024-01-15T11:16:00;4.70;;;4.40;;
19842;SDS011;10082;51.038;6.992;2024-01-15T11:18:29;5.43;;;4.77;;
19842;SDS011;10082;51.038;6.992;2024-01-15T11:23:51;5.47;;;4.97;;
19842;SDS011;10082;51.038;6.992;2024-01-15T11:26:32;4.83;;;4.43;;
19842;SDS011;10082;51.038;6.992;2024-01-15T11:29:02;4.67;;;4.20;;
19842;SDS011;10082;51.038;6.992;2024-01-15T11:34:55;3.70;;;3.40;;
19842;SDS011;10082;51.038;6.992;2024-01-15T11:37:27;3.20;;;3.00;;
19842;SDS011;10082;51.038;6.992;2024-01-15T11:39:56;2.40;;;2.20;;
19842;SDS011;10082;51.038;6.992;2024-01-15T11:42:28;3.10;;;2.70;;
19842;SDS011;10082;51.038;6.992;2024-01-15T11:44:56;3.07;;;2.80;;
19842;SDS011;10082;51.038;6.992;2024-01-15T11:50:34;2.87;;;2.67;;
19842;SDS011;10082;51.038;6.992;2024-01-15T11:53:02;2.67;;;2.47;;
19842;SDS011;10082;51.038;6.992;2024-01-15T11:55:32;2.97;;;2.77;;
19842;SDS011;10082;51.038;6.992;2024-01-15T11:58:01;3.10;;;2.90;;
19842;SDS011;10082;51.038;6.992;2024-01-15T12:00:31;2.87;;;2.67;;
19842;SDS011;10082;51.038;6.992;2024-01-15T12:02:58;3.30;;;3.00;;
19842;SDS011;10082;51.038;6.992;2024-01-15T12:05:27;3.10;;;2.87;;
19842;SDS011;10082;51.038;6.992;2024-01-15T12:07:56;3.33;;;3.03;;
19842;SDS011;10082;51.038;6.992;2024-01-15T12:10:23;3.40;;;3.20;;
19842;SDS011;10082;51.038;6.992;2024-01-15T12:12:57;3.70;;;3.40;;
19842;SDS011;10082;51.038;6.992;2024-01-15T12:15:25;4.00;;;3.70;;
19842;SDS011;10082;51.038;6.992;2024-01-15T12:17:55;4.70;;;4.30;;
19842;SDS011;10082;51.038;6.992;2024-01-15T12:20:24;4.77;;;4.37;;
19842;SDS011;10082;51.038;6.992;2024-01-15T12:22:51;5.40;;;4.83;;
19842;SDS011;10082;51.038;6.992;2024-01-15T12:25:20;5.50;;;5.00;;
19842;SDS011;10082;51.038;6.992;2024-01-15T12:27:47;5.97;;;5.33;;
19842;SDS011;10082;51.038;6.992;2024-01-15T12:30:15;5.53;;;5.10;;
19842;SDS011;10082;51.038;6.992;2024-01-15T12:32:42;5.67;;;5.27;;
19842;SDS011;10082;51.038;6.992;2024-01-15T12:35:10;6.23;;;5.70;;
19842;SDS011;10082;51.038;6.992;2024-01-15T12:37:37;7.17;;;5.80;;
19842;SDS011;10082;51.038;6.992;2024-01-15T12:40:06;6.63;;;6.03;;
19842;SDS011;10082;51.038;6.992;2024-01-15T12:42:36;6.17;;;5.67;;
19842;SDS011;10082;51.038;6.992;2024-01-15T12:45:04;6.77;;;5.70;;
19842;SDS011;10082;51.038;6.992;2024-01-15T12:47:33;6.60;;;6.00;;
19842;SDS011;10082;51.038;6.992;2024-01-15T12:50:00;6.23;;;5.63;;
19842;SDS011;10082;51.038;6.992;2024-01-15T12:52:27;6.93;;;5.00;;
19842;SDS011;10082;51.038;6.992;2024-01-15T12:54:55;5.50;;;4.80;;
19842;SDS011;10082;51.038;6.992;2024-01-15T12:57:22;5.33;;;4.70;;
19842;SDS011;10082;51.038;6.992;2024-01-15T12:59:51;5.53;;;4.70;;
19842;SDS011;10082;51.038;6.992;2024-01-15T13:02:18;5.97;;;4.33;;
19842;SDS011;10082;51.038;6.992;2024-01-15T13:04:45;6.53;;;4.03;;
19842;SDS011;10082;51.038;6.992;2024-01-15T13:07:12;5.17;;;3.80;;
19842;SDS011;10082;51.038;6.992;2024-01-15T13:09:39;5.47;;;3.50;;
19842;SDS011;10082;51.038;6.992;2024-01-15T13:12:06;4.40;;;3.37;;
19842;SDS011;10082;51.038;6.992;2024-01-15T13:14:34;5.53;;;3.60;;
19842;SDS011;10082;51.038;6.992;2024-01-15T13:17:03;3.97;;;3.57;;
19842;SDS011;10082;51.038;6.992;2024-01-15T13:19:31;4.17;;;3.20;;
19842;SDS011;10082;51.038;6.992;2024-01-15T13:21:59;3.33;;;3.00;;
19842;SDS011;10082;51.038;6.992;2024-01-15T13:24:26;5.03;;;3.30;;
19842;SDS011;10082;51.038;6.992;2024-01-15T13:26:53;3.67;;;2.73;;
19842;SDS011;10082;51.038;6.992;2024-01-15T13:29:20;5.07;;;3.23;;
19842;SDS011;10082;51.038;6.992;2024-01-15T13:31:47;5.57;;;3.17;;
19842;SDS011;10082;51.038;6.992;2024-01-15T13:34:17;4.93;;;3.23;;
19842;SDS011;10082;51.038;6.992;2024-01-15T13:36:44;5.33;;;3.10;;
19842;SDS011;10082;51.038;6.992;2024-01-15T13:39:11;3.47;;;2.80;;
19842;SDS011;10082;51.038;6.992;2024-01-15T13:41:38;3.60;;;2.57;;
19842;SDS011;10082;51.038;6.992;2024-01-15T13:44:06;3.53;;;2.70;;
19842;SDS011;10082;51.038;6.992;2024-01-15T13:46:35;3.87;;;2.60;;
19842;SDS011;10082;51.038;6.992;2024-01-15T13:49:03;2.80;;;2.57;;
19842;SDS011;10082;51.038;6.992;2024-01-15T13:51:32;3.23;;;2.90;;
19842;SDS011;10082;51.038;6.992;2024-01-15T13:54:00;2.83;;;2.37;;
19842;SDS011;10082;51.038;6.992;2024-01-15T13:56:29;3.80;;;2.50;;
19842;SDS011;10082;51.038;6.992;2024-01-15T13:58:57;2.57;;;2.33;;
19842;SDS011;10082;51.038;6.992;2024-01-15T14:01:25;3.27;;;2.70;;
19842;SDS011;10082;51.038;6.992;2024-01-15T14:03:52;4.03;;;2.80;;
19842;SDS011;10082;51.038;6.992;2024-01-15T14:06:20;3.10;;;2.90;;
19842;SDS011;10082;51.038;6.992;2024-01-15T14:08:48;3.30;;;3.00;;
19842;SDS011;10082;51.038;6.992;2024-01-15T14:11:15;3.23;;;2.93;;
19842;SDS011;10082;51.038;6.992;2024-01-15T14:13:42;3.50;;;3.20;;
19842;SDS011;10082;51.038;6.992;2024-01-15T14:16:09;3.87;;;3.10;;
19842;SDS011;10082;51.038;6.992;2024-01-15T14:18:37;3.10;;;2.80;;
19842;SDS011;10082;51.038;6.992;2024-01-15T14:21:04;3.43;;;3.23;;
19842;SDS011;10082;51.038;6.992;2024-01-15T14:23:31;3.23;;;2.93;;
19842;SDS011;10082;51.038;6.992;2024-01-15T14:26:00;3.73;;;3.30;;
19842;SDS011;10082;51.038;6.992;2024-01-15T14:28:27;3.40;;;3.10;;
19842;SDS011;10082;51.038;6.992;2024-01-15T14:30:55;3.83;;;3.00;;
19842;SDS011;10082;51.038;6.992;2024-01-15T14:33:23;4.60;;;3.57;;
19842;SDS011;10082;51.038;6.992;2024-01-15T14:35:51;3.90;;;2.90;;
19842;SDS011;10082;51.038;6.992;2024-01-15T14:38:18;3.13;;;2.83;;
19842;SDS011;10082;51.038;6.992;2024-01-15T14:40:44;3.27;;;2.80;;